Airfield :
LOGIN :

Register | Disclaimer

   EN    FR    IT 

 










Legend :    VFR   Marginal VFR   IFR   Intensive IFR   Very Intensive IFR
Visi :
Ceiling :
>= 8 km
>= 3000ft
5 to 8 km
1000 to 3000 ft
1500m to 5 km
500 to 1000 ft
800 to 1500m
200 to 500 ft
< 800m
< 200 ft
Symbols :   Thunderstorms  Fog  Heavy snow  Heavy precipitations  Wind > 20 kt
SIGMETs :     Misc.  Thunderstorms  Icing  Turbulence  Mountain Waves  Volcanic Ashes







- Airport Elevation : 392 ft
- IATA code : CDG
- Download approach charts


LFPG - Paris-Aeroport Charles De Gaulle

CURRENT METAR :
  • 170730Z 21011KT 9999 FEW026 SCT051 BKN100 19/14 Q1017 NOSIG

EXPIRED METARs :
  • 170700Z 21012KT 9999 FEW028 SCT051 BKN100 18/14 Q1017 NOSIG
  • 170630Z 20009KT CAVOK 18/14 Q1017 NOSIG
  • 170600Z 18009KT CAVOK 18/14 Q1017 NOSIG
  • 170530Z 19009KT CAVOK 18/14 Q1017 NOSIG
  • 170500Z 19010KT 180V260 CAVOK 18/13 Q1017 NOSIG

TAF AMD TAF LFPG
Valid from the 17 at 07:00 until the 18 at 12:00 UTC


170745Z 1707/1812 20010KT 9999 BKN020
TEMPO 1708/1710 4000 -RA BKN008
TEMPO 1711/1713 22012G25KT
PROB40
TEMPO 1716/1719 2500 RA SCT015 SCT025CB
PROB40
TEMPO 1804/1806 3000 RA BKN015 SCT020TCU TX25/1716Z TN19/1707Z
ATIS : +33 1 48 62 10 92
No reported NOTAMs for that airfield.



MET'MAP, your aeronautical weather chart ! - Copyright ORBIFLY December 2007 - Disclaimer

ORBIFLY MET'MAP TEAM :

Programming & Development : Alexandra Zaïnal
Concept & Development : Baudouin d'Aumeries
Co-Development & Prog : Marc-Olivier Méhu
Technical & hardware support : Manuel Goepfert

Contact : metmap@orbifly.com




SOURCES & CREDITS :

   NOAA